sensor_id;sensor_type;location;lat;lon;timestamp;temperature;humidity
38090;DHT22;23904;52.322;10.232;2022-09-30T00:00:31;8.60;99.90
38090;DHT22;23904;52.322;10.232;2022-09-30T00:02:57;8.60;99.90
38090;DHT22;23904;52.322;10.232;2022-09-30T00:05:24;8.60;99.90
38090;DHT22;23904;52.322;10.232;2022-09-30T00:07:50;8.60;99.90
38090;DHT22;23904;52.322;10.232;2022-09-30T00:10:15;8.50;99.90
38090;DHT22;23904;52.322;10.232;2022-09-30T00:12:41;8.60;99.90
38090;DHT22;23904;52.322;10.232;2022-09-30T00:15:07;8.50;99.90
38090;DHT22;23904;52.322;10.232;2022-09-30T00:17:33;8.50;99.90
38090;DHT22;23904;52.322;10.232;2022-09-30T00:19:59;8.50;99.90
38090;DHT22;23904;52.322;10.232;2022-09-30T00:22:24;8.50;99.90
38090;DHT22;23904;52.322;10.232;2022-09-30T00:24:50;8.50;99.90
38090;DHT22;23904;52.322;10.232;2022-09-30T00:27:16;8.50;99.90
38090;DHT22;23904;52.322;10.232;2022-09-30T00:29:43;8.50;99.90
38090;DHT22;23904;52.322;10.232;2022-09-30T00:32:09;8.50;99.90
38090;DHT22;23904;52.322;10.232;2022-09-30T00:34:35;8.50;99.90
38090;DHT22;23904;52.322;10.232;2022-09-30T00:37:02;8.50;99.90
38090;DHT22;23904;52.322;10.232;2022-09-30T00:39:29;8.40;99.90
38090;DHT22;23904;52.322;10.232;2022-09-30T00:41:59;8.50;99.90
38090;DHT22;23904;52.322;10.232;2022-09-30T00:44:49;8.40;99.90
38090;DHT22;23904;52.322;10.232;2022-09-30T00:55:53;8.30;99.90
38090;DHT22;23904;52.322;10.232;2022-09-30T00:58:43;8.30;99.90
38090;DHT22;23904;52.322;10.232;2022-09-30T01:01:10;8.30;99.90
38090;DHT22;23904;52.322;10.232;2022-09-30T01:04:15;8.20;99.90
38090;DHT22;23904;52.322;10.232;2022-09-30T01:06:43;8.20;99.90
38090;DHT22;23904;52.322;10.232;2022-09-30T01:09:09;8.20;99.90
38090;DHT22;23904;52.322;10.232;2022-09-30T01:11:36;8.10;99.90
38090;DHT22;23904;52.322;10.232;2022-09-30T01:14:08;8.10;99.90
38090;DHT22;23904;52.322;10.232;2022-09-30T01:26:12;8.20;99.90
38090;DHT22;23904;52.322;10.232;2022-09-30T01:32:48;8.10;99.90
38090;DHT22;23904;52.322;10.232;2022-09-30T01:41:52;8.00;99.90
38090;DHT22;23904;52.322;10.232;2022-09-30T01:47:25;7.90;99.90
38090;DHT22;23904;52.322;10.232;2022-09-30T01:53:08;8.00;99.90
38090;DHT22;23904;52.322;10.232;2022-09-30T01:55:55;7.90;99.90
38090;DHT22;23904;52.322;10.232;2022-09-30T01:58:43;7.90;99.90
38090;DHT22;23904;52.322;10.232;2022-09-30T02:01:22;7.90;99.90
38090;DHT22;23904;52.322;10.232;2022-09-30T02:03:54;7.90;99.90
38090;DHT22;23904;52.322;10.232;2022-09-30T02:06:31;7.90;99.90
38090;DHT22;23904;52.322;10.232;2022-09-30T02:09:14;7.90;99.90
38090;DHT22;23904;52.322;10.232;2022-09-30T02:11:41;7.90;99.90
38090;DHT22;23904;52.322;10.232;2022-09-30T02:14:27;7.80;99.90
38090;DHT22;23904;52.322;10.232;2022-09-30T02:17:06;7.80;99.90
38090;DHT22;23904;52.322;10.232;2022-09-30T02:22:30;7.90;99.90
38090;DHT22;23904;52.322;10.232;2022-09-30T02:25:11;7.90;99.90
38090;DHT22;23904;52.322;10.232;2022-09-30T02:27:49;7.90;99.90
38090;DHT22;23904;52.322;10.232;2022-09-30T02:30:19;7.80;99.90
38090;DHT22;23904;52.322;10.232;2022-09-30T02:32:46;7.80;99.90
38090;DHT22;23904;52.322;10.232;2022-09-30T02:35:21;7.80;99.90
38090;DHT22;23904;52.322;10.232;2022-09-30T02:38:12;7.80;99.90
38090;DHT22;23904;52.322;10.232;2022-09-30T02:40:49;7.80;99.90
38090;DHT22;23904;52.322;10.232;2022-09-30T02:43:19;7.70;99.90
38090;DHT22;23904;52.322;10.232;2022-09-30T02:57:56;7.70;99.90
38090;DHT22;23904;52.322;10.232;2022-09-30T03:00:30;7.70;99.90
38090;DHT22;23904;52.322;10.232;2022-09-30T03:03:01;7.70;99.90
38090;DHT22;23904;52.322;10.232;2022-09-30T03:05:30;7.70;99.90
38090;DHT22;23904;52.322;10.232;2022-09-30T03:07:56;7.70;99.90
38090;DHT22;23904;52.322;10.232;2022-09-30T03:10:22;7.70;99.90
38090;DHT22;23904;52.322;10.232;2022-09-30T03:19:02;7.70;99.90
38090;DHT22;23904;52.322;10.232;2022-09-30T03:21:51;7.60;99.90
38090;DHT22;23904;52.322;10.232;2022-09-30T03:24:51;7.60;99.90
38090;DHT22;23904;52.322;10.232;2022-09-30T03:33:54;7.60;99.90
38090;DHT22;23904;52.322;10.232;2022-09-30T03:36:39;7.60;99.90
38090;DHT22;23904;52.322;10.232;2022-09-30T03:39:20;7.60;99.90
38090;DHT22;23904;52.322;10.232;2022-09-30T03:47:24;7.60;99.90
38090;DHT22;23904;52.322;10.232;2022-09-30T03:49:58;7.50;99.90
38090;DHT22;23904;52.322;10.232;2022-09-30T03:52:29;7.50;99.90
38090;DHT22;23904;52.322;10.232;2022-09-30T03:54:58;7.50;99.90
38090;DHT22;23904;52.322;10.232;2022-09-30T03:57:25;7.60;99.90
38090;DHT22;23904;52.322;10.232;2022-09-30T03:59:58;7.50;99.90
38090;DHT22;23904;52.322;10.232;2022-09-30T04:02:25;7.50;99.90
38090;DHT22;23904;52.322;10.232;2022-09-30T04:04:51;7.50;99.90
38090;DHT22;23904;52.322;10.232;2022-09-30T04:07:18;7.50;99.90
38090;DHT22;23904;52.322;10.232;2022-09-30T04:09:44;7.60;99.90
38090;DHT22;23904;52.322;10.232;2022-09-30T04:12:09;7.60;99.90
38090;DHT22;23904;52.322;10.232;2022-09-30T04:14:35;7.60;99.90
38090;DHT22;23904;52.322;10.232;2022-09-30T04:17:05;7.60;99.90
38090;DHT22;23904;52.322;10.232;2022-09-30T04:19:30;7.60;99.90
38090;DHT22;23904;52.322;10.232;2022-09-30T04:21:56;7.50;99.90
38090;DHT22;23904;52.322;10.232;2022-09-30T04:24:23;7.50;99.90
38090;DHT22;23904;52.322;10.232;2022-09-30T04:26:49;7.60;99.90
38090;DHT22;23904;52.322;10.232;2022-09-30T04:29:15;7.60;99.90
38090;DHT22;23904;52.322;10.232;2022-09-30T04:31:41;7.50;99.90
38090;DHT22;23904;52.322;10.232;2022-09-30T04:34:08;7.50;99.90
38090;DHT22;23904;52.322;10.232;2022-09-30T04:36:35;7.50;99.90
38090;DHT22;23904;52.322;10.232;2022-09-30T04:39:01;7.60;99.90
38090;DHT22;23904;52.322;10.232;2022-09-30T04:41:26;7.50;99.90
38090;DHT22;23904;52.322;10.232;2022-09-30T04:43:53;7.50;99.90
38090;DHT22;23904;52.322;10.232;2022-09-30T04:46:21;7.50;99.90
38090;DHT22;23904;52.322;10.232;2022-09-30T04:48:48;7.50;99.90
38090;DHT22;23904;52.322;10.232;2022-09-30T04:51:16;7.50;99.90
38090;DHT22;23904;52.322;10.232;2022-09-30T04:53:44;7.50;99.90
38090;DHT22;23904;52.322;10.232;2022-09-30T04:56:10;7.50;99.90
38090;DHT22;23904;52.322;10.232;2022-09-30T04:58:36;7.40;99.90
38090;DHT22;23904;52.322;10.232;2022-09-30T05:01:08;7.50;99.90
38090;DHT22;23904;52.322;10.232;2022-09-30T05:03:36;7.50;99.90
38090;DHT22;23904;52.322;10.232;2022-09-30T05:06:03;7.40;99.90
38090;DHT22;23904;52.322;10.232;2022-09-30T05:08:30;7.40;99.90
38090;DHT22;23904;52.322;10.232;2022-09-30T05:11:08;7.40;99.90
38090;DHT22;23904;52.322;10.232;2022-09-30T05:13:44;7.40;99.90
38090;DHT22;23904;52.322;10.232;2022-09-30T05:16:11;7.30;99.90
38090;DHT22;23904;52.322;10.232;2022-09-30T05:18:37;7.30;99.90
38090;DHT22;23904;52.322;10.232;2022-09-30T05:21:14;7.20;99.90
38090;DHT22;23904;52.322;10.232;2022-09-30T05:23:41;7.20;99.90
38090;DHT22;23904;52.322;10.232;2022-09-30T05:26:07;7.30;99.90
38090;DHT22;23904;52.322;10.232;2022-09-30T05:28:33;7.30;99.90
38090;DHT22;23904;52.322;10.232;2022-09-30T05:31:02;7.40;99.90
38090;DHT22;23904;52.322;10.232;2022-09-30T05:33:30;7.40;99.90
38090;DHT22;23904;52.322;10.232;2022-09-30T05:36:02;7.30;99.90
38090;DHT22;23904;52.322;10.232;2022-09-30T05:38:31;7.40;99.90
38090;DHT22;23904;52.322;10.232;2022-09-30T05:40:57;7.40;99.90
38090;DHT22;23904;52.322;10.232;2022-09-30T05:43:23;7.40;99.90
38090;DHT22;23904;52.322;10.232;2022-09-30T05:45:54;7.50;99.90
38090;DHT22;23904;52.322;10.232;2022-09-30T05:48:21;7.50;99.90
38090;DHT22;23904;52.322;10.232;2022-09-30T05:50:47;7.50;99.90
38090;DHT22;23904;52.322;10.232;2022-09-30T05:53:15;7.50;99.90
38090;DHT22;23904;52.322;10.232;2022-09-30T05:55:45;7.50;99.90
38090;DHT22;23904;52.322;10.232;2022-09-30T05:58:13;7.60;99.90
38090;DHT22;23904;52.322;10.232;2022-09-30T06:00:41;7.60;99.90
38090;DHT22;23904;52.322;10.232;2022-09-30T06:03:07;7.60;99.90
38090;DHT22;23904;52.322;10.232;2022-09-30T06:05:33;7.60;99.90
38090;DHT22;23904;52.322;10.232;2022-09-30T06:07:59;7.70;99.90
38090;DHT22;23904;52.322;10.232;2022-09-30T06:10:25;7.60;99.90
38090;DHT22;23904;52.322;10.232;2022-09-30T06:12:51;7.70;99.90
38090;DHT22;23904;52.322;10.232;2022-09-30T06:15:16;7.60;99.90
38090;DHT22;23904;52.322;10.232;2022-09-30T06:17:42;7.60;99.90
38090;DHT22;23904;52.322;10.232;2022-09-30T06:20:09;7.70;99.90
38090;DHT22;23904;52.322;10.232;2022-09-30T06:22:35;7.70;99.90
38090;DHT22;23904;52.322;10.232;2022-09-30T06:25:05;7.70;99.90
38090;DHT22;23904;52.322;10.232;2022-09-30T06:27:34;7.80;99.90
38090;DHT22;23904;52.322;10.232;2022-09-30T06:30:01;7.90;99.90
38090;DHT22;23904;52.322;10.232;2022-09-30T06:32:27;7.90;99.90
38090;DHT22;23904;52.322;10.232;2022-09-30T06:34:54;8.00;99.90
38090;DHT22;23904;52.322;10.232;2022-09-30T06:37:21;8.00;99.90
38090;DHT22;23904;52.322;10.232;2022-09-30T06:39:48;8.10;99.90
38090;DHT22;23904;52.322;10.232;2022-09-30T06:42:15;8.10;99.90
38090;DHT22;23904;52.322;10.232;2022-09-30T06:44:42;8.20;99.90
38090;DHT22;23904;52.322;10.232;2022-09-30T06:47:09;8.30;99.90
38090;DHT22;23904;52.322;10.232;2022-09-30T06:49:38;8.30;99.90
38090;DHT22;23904;52.322;10.232;2022-09-30T06:52:05;8.40;99.90
38090;DHT22;23904;52.322;10.232;2022-09-30T06:54:30;8.40;99.90
38090;DHT22;23904;52.322;10.232;2022-09-30T06:57:01;8.50;99.90
38090;DHT22;23904;52.322;10.232;2022-09-30T06:59:26;8.60;99.90
38090;DHT22;23904;52.322;10.232;2022-09-30T07:01:52;8.60;99.90
38090;DHT22;23904;52.322;10.232;2022-09-30T07:04:18;8.60;99.90
38090;DHT22;23904;52.322;10.232;2022-09-30T07:06:44;8.70;99.90
38090;DHT22;23904;52.322;10.232;2022-09-30T07:09:10;8.80;99.90
38090;DHT22;23904;52.322;10.232;2022-09-30T07:11:38;8.80;99.90
38090;DHT22;23904;52.322;10.232;2022-09-30T07:14:04;8.90;99.90
38090;DHT22;23904;52.322;10.232;2022-09-30T07:16:30;9.00;99.90
38090;DHT22;23904;52.322;10.232;2022-09-30T07:19:00;9.00;99.90
38090;DHT22;23904;52.322;10.232;2022-09-30T07:21:33;9.10;99.90
38090;DHT22;23904;52.322;10.232;2022-09-30T07:23:59;9.20;99.90
38090;DHT22;23904;52.322;10.232;2022-09-30T07:26:28;9.30;99.90
38090;DHT22;23904;52.322;10.232;2022-09-30T07:28:55;9.40;99.90
38090;DHT22;23904;52.322;10.232;2022-09-30T07:31:23;9.50;99.90
38090;DHT22;23904;52.322;10.232;2022-09-30T07:33:50;9.60;99.90
38090;DHT22;23904;52.322;10.232;2022-09-30T07:36:22;9.70;99.90
38090;DHT22;23904;52.322;10.232;2022-09-30T07:38:52;9.80;99.90
38090;DHT22;23904;52.322;10.232;2022-09-30T07:41:22;9.90;99.90
38090;DHT22;23904;52.322;10.232;2022-09-30T07:43:57;10.00;99.90
38090;DHT22;23904;52.322;10.232;2022-09-30T07:46:35;10.10;99.90
38090;DHT22;23904;52.322;10.232;2022-09-30T07:49:03;10.10;99.90
38090;DHT22;23904;52.322;10.232;2022-09-30T07:51:38;10.30;99.90
38090;DHT22;23904;52.322;10.232;2022-09-30T07:54:08;10.30;99.90
38090;DHT22;23904;52.322;10.232;2022-09-30T07:56:39;10.30;99.90
38090;DHT22;23904;52.322;10.232;2022-09-30T07:59:09;10.30;99.90
38090;DHT22;23904;52.322;10.232;2022-09-30T08:01:35;10.40;99.90
38090;DHT22;23904;52.322;10.232;2022-09-30T08:04:04;10.50;99.90
38090;DHT22;23904;52.322;10.232;2022-09-30T08:06:35;10.50;99.90
38090;DHT22;23904;52.322;10.232;2022-09-30T08:09:08;10.60;99.90
38090;DHT22;23904;52.322;10.232;2022-09-30T08:11:37;10.70;99.90
38090;DHT22;23904;52.322;10.232;2022-09-30T08:14:04;10.70;99.90
38090;DHT22;23904;52.322;10.232;2022-09-30T08:16:30;10.90;99.90
38090;DHT22;23904;52.322;10.232;2022-09-30T08:18:58;10.90;99.90
38090;DHT22;23904;52.322;10.232;2022-09-30T08:21:26;11.00;99.90
38090;DHT22;23904;52.322;10.232;2022-09-30T08:23:52;11.10;99.90
38090;DHT22;23904;52.322;10.232;2022-09-30T08:26:18;11.20;99.90
38090;DHT22;23904;52.322;10.232;2022-09-30T08:28:45;11.30;99.90
38090;DHT22;23904;52.322;10.232;2022-09-30T08:31:19;11.30;99.90
38090;DHT22;23904;52.322;10.232;2022-09-30T08:33:46;11.50;99.90
38090;DHT22;23904;52.322;10.232;2022-09-30T08:38:43;11.90;99.90
38090;DHT22;23904;52.322;10.232;2022-09-30T08:41:11;12.10;99.90
38090;DHT22;23904;52.322;10.232;2022-09-30T08:50:33;12.70;99.90
38090;DHT22;23904;52.322;10.232;2022-09-30T08:53:16;13.10;99.90
38090;DHT22;23904;52.322;10.232;2022-09-30T08:55:48;13.40;99.90
38090;DHT22;23904;52.322;10.232;2022-09-30T08:58:24;13.30;99.90
38090;DHT22;23904;52.322;10.232;2022-09-30T09:00:57;13.60;99.90
38090;DHT22;23904;52.322;10.232;2022-09-30T09:03:28;14.30;99.90
38090;DHT22;23904;52.322;10.232;2022-09-30T09:15:17;15.40;99.90
38090;DHT22;23904;52.322;10.232;2022-09-30T09:18:22;14.90;99.90
38090;DHT22;23904;52.322;10.232;2022-09-30T09:20:55;14.80;99.90
38090;DHT22;23904;52.322;10.232;2022-09-30T09:23:29;14.80;99.90
38090;DHT22;23904;52.322;10.232;2022-09-30T09:25:55;15.00;99.90
38090;DHT22;23904;52.322;10.232;2022-09-30T09:31:02;15.40;99.90
38090;DHT22;23904;52.322;10.232;2022-09-30T09:33:31;15.80;99.90
38090;DHT22;23904;52.322;10.232;2022-09-30T09:39:13;18.40;99.90
38090;DHT22;23904;52.322;10.232;2022-09-30T09:41:57;20.50;96.80
38090;DHT22;23904;52.322;10.232;2022-09-30T09:44:32;22.20;93.40
38090;DHT22;23904;52.322;10.232;2022-09-30T09:47:08;24.10;86.90
38090;DHT22;23904;52.322;10.232;2022-09-30T09:49:44;25.30;79.40
38090;DHT22;23904;52.322;10.232;2022-09-30T09:54:40;26.20;68.60
38090;DHT22;23904;52.322;10.232;2022-09-30T09:57:12;25.80;70.70
38090;DHT22;23904;52.322;10.232;2022-09-30T09:59:59;26.60;69.20
38090;DHT22;23904;52.322;10.232;2022-09-30T10:03:20;26.80;66.00
38090;DHT22;23904;52.322;10.232;2022-09-30T10:08:36;27.80;61.20
38090;DHT22;23904;52.322;10.232;2022-09-30T10:11:24;27.20;62.50
38090;DHT22;23904;52.322;10.232;2022-09-30T10:14:00;27.90;58.90
38090;DHT22;23904;52.322;10.232;2022-09-30T10:16:33;28.00;59.20
38090;DHT22;23904;52.322;10.232;2022-09-30T10:19:21;27.80;58.10
38090;DHT22;23904;52.322;10.232;2022-09-30T10:21:49;29.50;55.70
38090;DHT22;23904;52.322;10.232;2022-09-30T10:24:29;29.60;54.00
38090;DHT22;23904;52.322;10.232;2022-09-30T10:26:56;27.40;57.50
38090;DHT22;23904;52.322;10.232;2022-09-30T10:32:03;27.70;56.20
38090;DHT22;23904;52.322;10.232;2022-09-30T10:34:33;28.00;54.90
38090;DHT22;23904;52.322;10.232;2022-09-30T10:37:12;28.90;53.40
38090;DHT22;23904;52.322;10.232;2022-09-30T10:39:42;29.60;51.40
38090;DHT22;23904;52.322;10.232;2022-09-30T10:42:18;28.20;54.40
38090;DHT22;23904;52.322;10.232;2022-09-30T10:44:53;27.80;53.30
38090;DHT22;23904;52.322;10.232;2022-09-30T10:47:22;28.30;53.60
38090;DHT22;23904;52.322;10.232;2022-09-30T10:52:28;29.50;52.00
38090;DHT22;23904;52.322;10.232;2022-09-30T10:55:00;29.40;52.20
38090;DHT22;23904;52.322;10.232;2022-09-30T10:57:37;30.10;49.40
38090;DHT22;23904;52.322;10.232;2022-09-30T11:00:06;29.10;51.00
38090;DHT22;23904;52.322;10.232;2022-09-30T11:02:43;26.60;54.00
38090;DHT22;23904;52.322;10.232;2022-09-30T11:10:58;25.70;57.00
38090;DHT22;23904;52.322;10.232;2022-09-30T11:13:55;26.00;54.10
38090;DHT22;23904;52.322;10.232;2022-09-30T11:16:46;25.30;54.80
38090;DHT22;23904;52.322;10.232;2022-09-30T11:19:26;24.90;55.40
38090;DHT22;23904;52.322;10.232;2022-09-30T11:24:47;25.80;54.30
38090;DHT22;23904;52.322;10.232;2022-09-30T11:30:15;28.30;51.40
38090;DHT22;23904;52.322;10.232;2022-09-30T11:42:22;30.40;44.60
38090;DHT22;23904;52.322;10.232;2022-09-30T11:45:06;30.40;44.00
38090;DHT22;23904;52.322;10.232;2022-09-30T11:54:15;30.00;45.40
38090;DHT22;23904;52.322;10.232;2022-09-30T11:57:06;29.90;44.50
38090;DHT22;23904;52.322;10.232;2022-09-30T11:59:53;29.70;45.90
38090;DHT22;23904;52.322;10.232;2022-09-30T12:02:35;30.10;44.50
38090;DHT22;23904;52.322;10.232;2022-09-30T12:05:29;29.60;45.80
38090;DHT22;23904;52.322;10.232;2022-09-30T12:13:30;25.10;52.60
38090;DHT22;23904;52.322;10.232;2022-09-30T12:15:58;24.00;55.20
38090;DHT22;23904;52.322;10.232;2022-09-30T12:18:35;23.30;56.40
38090;DHT22;23904;52.322;10.232;2022-09-30T12:21:22;22.50;57.70
38090;DHT22;23904;52.322;10.232;2022-09-30T12:27:00;20.60;66.40
38090;DHT22;23904;52.322;10.232;2022-09-30T12:29:37;19.90;69.50
38090;DHT22;23904;52.322;10.232;2022-09-30T12:41:23;19.10;71.70
38090;DHT22;23904;52.322;10.232;2022-09-30T12:44:11;19.20;71.10
38090;DHT22;23904;52.322;10.232;2022-09-30T12:47:26;19.20;70.00
38090;DHT22;23904;52.322;10.232;2022-09-30T12:50:07;19.20;70.90
38090;DHT22;23904;52.322;10.232;2022-09-30T12:52:35;19.30;70.10
38090;DHT22;23904;52.322;10.232;2022-09-30T12:55:20;19.30;70.80
38090;DHT22;23904;52.322;10.232;2022-09-30T12:57:56;19.00;69.40
38090;DHT22;23904;52.322;10.232;2022-09-30T13:00:28;19.20;69.50
38090;DHT22;23904;52.322;10.232;2022-09-30T13:03:04;19.40;69.20
38090;DHT22;23904;52.322;10.232;2022-09-30T13:10:56;18.30;73.40
38090;DHT22;23904;52.322;10.232;2022-09-30T13:13:25;18.60;73.40
38090;DHT22;23904;52.322;10.232;2022-09-30T13:15:54;18.70;72.60
38090;DHT22;23904;52.322;10.232;2022-09-30T13:23:41;18.70;70.40
38090;DHT22;23904;52.322;10.232;2022-09-30T13:34:32;18.00;72.50
38090;DHT22;23904;52.322;10.232;2022-09-30T13:37:04;17.80;71.20
38090;DHT22;23904;52.322;10.232;2022-09-30T13:47:59;17.20;80.50
38090;DHT22;23904;52.322;10.232;2022-09-30T13:50:47;17.10;79.50
38090;DHT22;23904;52.322;10.232;2022-09-30T13:53:28;17.20;79.40
38090;DHT22;23904;52.322;10.232;2022-09-30T13:55:58;17.30;73.60
38090;DHT22;23904;52.322;10.232;2022-09-30T14:01:28;17.90;73.20
38090;DHT22;23904;52.322;10.232;2022-09-30T14:07:25;17.80;72.80
38090;DHT22;23904;52.322;10.232;2022-09-30T14:10:13;17.60;73.70
38090;DHT22;23904;52.322;10.232;2022-09-30T14:16:05;17.50;74.90
38090;DHT22;23904;52.322;10.232;2022-09-30T14:18:44;17.40;74.90
38090;DHT22;23904;52.322;10.232;2022-09-30T14:21:56;17.20;76.70
38090;DHT22;23904;52.322;10.232;2022-09-30T14:24:29;17.10;76.20
38090;DHT22;23904;52.322;10.232;2022-09-30T14:27:21;17.20;75.90
38090;DHT22;23904;52.322;10.232;2022-09-30T14:32:30;17.20;73.70
38090;DHT22;23904;52.322;10.232;2022-09-30T14:34:58;17.20;74.80
38090;DHT22;23904;52.322;10.232;2022-09-30T14:37:29;17.20;75.30
38090;DHT22;23904;52.322;10.232;2022-09-30T14:39:56;17.20;74.90
38090;DHT22;23904;52.322;10.232;2022-09-30T14:42:33;17.30;75.60
38090;DHT22;23904;52.322;10.232;2022-09-30T14:45:04;17.30;75.90
38090;DHT22;23904;52.322;10.232;2022-09-30T14:47:33;17.30;74.10
38090;DHT22;23904;52.322;10.232;2022-09-30T14:50:08;17.40;73.60
38090;DHT22;23904;52.322;10.232;2022-09-30T14:52:40;17.40;73.20
38090;DHT22;23904;52.322;10.232;2022-09-30T14:57:53;17.00;74.60
38090;DHT22;23904;52.322;10.232;2022-09-30T15:00:28;16.90;73.90
38090;DHT22;23904;52.322;10.232;2022-09-30T15:03:01;16.80;75.50
38090;DHT22;23904;52.322;10.232;2022-09-30T15:05:34;16.80;77.20
38090;DHT22;23904;52.322;10.232;2022-09-30T15:08:00;16.70;76.60
38090;DHT22;23904;52.322;10.232;2022-09-30T15:10:26;16.80;76.30
38090;DHT22;23904;52.322;10.232;2022-09-30T15:12:53;16.80;76.50
38090;DHT22;23904;52.322;10.232;2022-09-30T15:15:32;16.70;76.20
38090;DHT22;23904;52.322;10.232;2022-09-30T15:17:59;16.60;77.80
38090;DHT22;23904;52.322;10.232;2022-09-30T15:20:45;16.50;82.10
38090;DHT22;23904;52.322;10.232;2022-09-30T15:23:15;16.40;82.50
38090;DHT22;23904;52.322;10.232;2022-09-30T15:25:44;16.30;80.60
38090;DHT22;23904;52.322;10.232;2022-09-30T15:28:10;16.30;80.50
38090;DHT22;23904;52.322;10.232;2022-09-30T15:30:36;16.20;81.40
38090;DHT22;23904;52.322;10.232;2022-09-30T15:33:04;16.10;83.30
38090;DHT22;23904;52.322;10.232;2022-09-30T15:35:31;16.10;85.30
38090;DHT22;23904;52.322;10.232;2022-09-30T15:38:09;16.00;85.10
38090;DHT22;23904;52.322;10.232;2022-09-30T15:40:46;16.00;83.80
38090;DHT22;23904;52.322;10.232;2022-09-30T15:43:16;16.00;83.80
38090;DHT22;23904;52.322;10.232;2022-09-30T15:46:17;16.00;83.10
38090;DHT22;23904;52.322;10.232;2022-09-30T15:48:43;15.90;84.90
38090;DHT22;23904;52.322;10.232;2022-09-30T15:51:33;15.90;85.10
38090;DHT22;23904;52.322;10.232;2022-09-30T15:57:35;15.80;86.00
38090;DHT22;23904;52.322;10.232;2022-09-30T16:00:06;15.70;85.80
38090;DHT22;23904;52.322;10.232;2022-09-30T16:02:35;15.70;85.50
38090;DHT22;23904;52.322;10.232;2022-09-30T16:05:02;15.60;85.20
38090;DHT22;23904;52.322;10.232;2022-09-30T16:07:30;15.60;84.90
38090;DHT22;23904;52.322;10.232;2022-09-30T16:09:57;15.60;84.90
38090;DHT22;23904;52.322;10.232;2022-09-30T16:12:28;15.60;85.30
38090;DHT22;23904;52.322;10.232;2022-09-30T16:15:09;15.50;84.60
38090;DHT22;23904;52.322;10.232;2022-09-30T16:17:43;15.50;85.20
38090;DHT22;23904;52.322;10.232;2022-09-30T16:28:08;15.30;86.20
38090;DHT22;23904;52.322;10.232;2022-09-30T16:30:42;15.20;87.40
38090;DHT22;23904;52.322;10.232;2022-09-30T16:33:11;15.20;88.80
38090;DHT22;23904;52.322;10.232;2022-09-30T16:35:40;15.10;88.40
38090;DHT22;23904;52.322;10.232;2022-09-30T16:38:12;15.10;89.60
38090;DHT22;23904;52.322;10.232;2022-09-30T16:40:39;15.00;90.40
38090;DHT22;23904;52.322;10.232;2022-09-30T16:43:06;15.00;90.70
38090;DHT22;23904;52.322;10.232;2022-09-30T16:45:32;14.90;90.80
38090;DHT22;23904;52.322;10.232;2022-09-30T16:48:00;14.80;89.80
38090;DHT22;23904;52.322;10.232;2022-09-30T16:50:48;14.80;90.80
38090;DHT22;23904;52.322;10.232;2022-09-30T16:53:16;14.70;91.50
38090;DHT22;23904;52.322;10.232;2022-09-30T16:55:42;14.60;91.60
38090;DHT22;23904;52.322;10.232;2022-09-30T16:58:11;14.50;91.30
38090;DHT22;23904;52.322;10.232;2022-09-30T17:00:37;14.50;91.40
38090;DHT22;23904;52.322;10.232;2022-09-30T17:03:13;14.40;91.00
38090;DHT22;23904;52.322;10.232;2022-09-30T17:05:41;14.40;91.90
38090;DHT22;23904;52.322;10.232;2022-09-30T17:08:10;14.30;92.30
38090;DHT22;23904;52.322;10.232;2022-09-30T17:10:41;14.20;92.30
38090;DHT22;23904;52.322;10.232;2022-09-30T17:13:08;14.20;91.80
38090;DHT22;23904;52.322;10.232;2022-09-30T17:15:34;14.20;92.10
38090;DHT22;23904;52.322;10.232;2022-09-30T17:18:04;14.10;92.30
38090;DHT22;23904;52.322;10.232;2022-09-30T17:20:32;14.10;92.70
38090;DHT22;23904;52.322;10.232;2022-09-30T17:22:58;14.10;92.80
38090;DHT22;23904;52.322;10.232;2022-09-30T17:25:23;14.00;93.20
38090;DHT22;23904;52.322;10.232;2022-09-30T17:27:49;14.00;93.00
38090;DHT22;23904;52.322;10.232;2022-09-30T17:30:16;13.90;93.20
38090;DHT22;23904;52.322;10.232;2022-09-30T17:32:42;13.90;93.40
38090;DHT22;23904;52.322;10.232;2022-09-30T17:35:09;13.80;94.30
38090;DHT22;23904;52.322;10.232;2022-09-30T17:37:35;13.80;94.60
38090;DHT22;23904;52.322;10.232;2022-09-30T17:40:05;13.70;95.10
38090;DHT22;23904;52.322;10.232;2022-09-30T17:42:50;13.70;95.60
38090;DHT22;23904;52.322;10.232;2022-09-30T17:45:33;13.50;95.80
38090;DHT22;23904;52.322;10.232;2022-09-30T17:47:59;13.50;95.50
38090;DHT22;23904;52.322;10.232;2022-09-30T17:50:25;13.40;95.60
38090;DHT22;23904;52.322;10.232;2022-09-30T17:52:50;13.40;95.90
38090;DHT22;23904;52.322;10.232;2022-09-30T17:55:16;13.40;95.70
38090;DHT22;23904;52.322;10.232;2022-09-30T17:57:42;13.40;96.10
38090;DHT22;23904;52.322;10.232;2022-09-30T18:00:08;13.40;97.10
38090;DHT22;23904;52.322;10.232;2022-09-30T18:02:36;13.30;97.30
38090;DHT22;23904;52.322;10.232;2022-09-30T18:05:03;13.20;97.20
38090;DHT22;23904;52.322;10.232;2022-09-30T18:07:29;13.10;97.50
38090;DHT22;23904;52.322;10.232;2022-09-30T18:09:55;13.10;97.60
38090;DHT22;23904;52.322;10.232;2022-09-30T18:12:21;13.10;98.00
38090;DHT22;23904;52.322;10.232;2022-09-30T18:14:46;13.00;98.00
38090;DHT22;23904;52.322;10.232;2022-09-30T18:17:12;13.00;96.90
38090;DHT22;23904;52.322;10.232;2022-09-30T18:19:38;13.00;97.90
38090;DHT22;23904;52.322;10.232;2022-09-30T18:22:03;12.90;97.90
38090;DHT22;23904;52.322;10.232;2022-09-30T18:24:29;12.90;98.60
38090;DHT22;23904;52.322;10.232;2022-09-30T18:27:27;12.90;98.80
38090;DHT22;23904;52.322;10.232;2022-09-30T18:29:58;12.80;98.70
38090;DHT22;23904;52.322;10.232;2022-09-30T18:32:25;12.80;98.40
38090;DHT22;23904;52.322;10.232;2022-09-30T18:34:53;12.80;99.10
38090;DHT22;23904;52.322;10.232;2022-09-30T18:37:21;12.70;99.50
38090;DHT22;23904;52.322;10.232;2022-09-30T18:39:48;12.70;99.50
38090;DHT22;23904;52.322;10.232;2022-09-30T18:42:13;12.60;99.60
38090;DHT22;23904;52.322;10.232;2022-09-30T18:44:40;12.50;99.80
38090;DHT22;23904;52.322;10.232;2022-09-30T18:47:06;12.50;99.30
38090;DHT22;23904;52.322;10.232;2022-09-30T18:49:32;12.50;99.10
38090;DHT22;23904;52.322;10.232;2022-09-30T18:51:57;12.50;99.40
38090;DHT22;23904;52.322;10.232;2022-09-30T18:54:23;12.50;99.00
38090;DHT22;23904;52.322;10.232;2022-09-30T18:56:49;12.50;98.70
38090;DHT22;23904;52.322;10.232;2022-09-30T18:59:15;12.50;99.00
38090;DHT22;23904;52.322;10.232;2022-09-30T19:01:42;12.40;99.40
38090;DHT22;23904;52.322;10.232;2022-09-30T19:04:10;12.40;98.90
38090;DHT22;23904;52.322;10.232;2022-09-30T19:06:37;12.40;99.30
38090;DHT22;23904;52.322;10.232;2022-09-30T19:09:04;12.40;98.60
38090;DHT22;23904;52.322;10.232;2022-09-30T19:11:31;12.40;98.40